createdAt,value
2019-03-21T00:04:56.413Z,9.24
2019-03-21T00:13:47.576Z,9.23
2019-03-21T00:16:15.847Z,9.20
2019-03-21T00:21:39.675Z,9.22
2019-03-21T00:24:07.948Z,9.16
2019-03-21T00:26:36.235Z,9.18
2019-03-21T00:32:22.020Z,9.18
2019-03-21T00:34:50.293Z,9.19
2019-03-21T00:37:18.564Z,9.18
2019-03-21T00:39:46.849Z,9.23
2019-03-21T00:42:15.121Z,9.23
2019-03-21T00:44:43.405Z,9.25
2019-03-21T00:47:11.682Z,9.28
2019-03-21T00:49:39.960Z,9.33
2019-03-21T00:52:08.237Z,9.33
2019-03-21T00:54:36.538Z,9.34
2019-03-21T00:57:04.820Z,9.31
2019-03-21T00:59:33.111Z,9.34
2019-03-21T01:02:01.388Z,9.28
2019-03-21T01:07:37.165Z,9.25
2019-03-21T01:16:47.906Z,9.22
2019-03-21T01:19:16.184Z,9.28
2019-03-21T01:21:44.473Z,9.21
2019-03-21T01:24:12.749Z,9.27
2019-03-21T01:26:41.086Z,9.26
2019-03-21T01:29:09.357Z,9.26
2019-03-21T01:31:37.636Z,9.31
2019-03-21T01:34:05.910Z,9.28
2019-03-21T01:36:34.203Z,9.24
2019-03-21T01:39:02.478Z,9.27
2019-03-21T01:41:30.762Z,9.24
2019-03-21T01:43:59.053Z,9.21
2019-03-21T01:46:27.332Z,9.21
2019-03-21T01:48:55.649Z,9.24
2019-03-21T01:51:23.917Z,9.28
2019-03-21T01:56:59.679Z,9.19
2019-03-21T01:59:27.971Z,9.19
2019-03-21T02:01:56.243Z,9.23
2019-03-21T02:04:24.525Z,9.20
2019-03-21T02:06:52.801Z,9.27
2019-03-21T02:09:21.083Z,9.32
2019-03-21T02:11:49.361Z,9.30
2019-03-21T02:14:17.632Z,9.31
2019-03-21T02:16:45.917Z,9.28
2019-03-21T02:19:14.194Z,9.31
2019-03-21T02:21:42.479Z,9.29
2019-03-21T02:24:10.876Z,9.28
2019-03-21T02:26:39.142Z,9.25
2019-03-21T02:29:07.428Z,9.29
2019-03-21T02:31:35.705Z,9.27
2019-03-21T02:34:04.066Z,9.23
2019-03-21T03:19:44.347Z,9.20
2019-03-21T03:34:28.643Z,9.21
2019-03-21T03:36:56.921Z,9.21
2019-03-21T03:39:25.204Z,9.18
2019-03-21T03:41:53.485Z,9.22
2019-03-21T03:44:21.770Z,9.20
2019-03-21T03:46:50.037Z,9.22
2019-03-21T03:49:18.312Z,9.21
2019-03-21T03:51:46.586Z,9.22
2019-03-21T03:54:14.868Z,9.23
2019-03-21T04:03:02.016Z,9.22
2019-03-21T04:05:30.299Z,9.24
2019-03-21T04:07:58.589Z,9.23
2019-03-21T04:23:52.587Z,9.25
2019-03-21T04:32:48.672Z,9.26
2019-03-21T04:38:29.495Z,9.19
2019-03-21T04:40:57.779Z,9.23
2019-03-21T04:43:26.048Z,9.28
2019-03-21T04:46:02.863Z,9.25
2019-03-21T04:48:24.335Z,9.25
2019-03-21T04:50:52.617Z,9.22
2019-03-21T04:53:20.890Z,9.22
2019-03-21T04:58:37.343Z,9.22
2019-03-21T05:01:05.621Z,9.21
2019-03-21T05:03:33.970Z,9.24
2019-03-21T05:09:48.898Z,9.20
2019-03-21T05:12:18.585Z,9.20
2019-03-21T05:20:45.575Z,9.21
2019-03-21T05:23:14.637Z,9.25
2019-03-21T05:25:42.912Z,9.25
2019-03-21T05:31:48.100Z,9.28
2019-03-21T05:34:16.388Z,9.32
2019-03-21T05:39:33.629Z,9.34
2019-03-21T05:45:00.131Z,9.30
2019-03-21T05:47:28.413Z,9.35
2019-03-21T05:49:56.696Z,9.32
2019-03-21T05:52:24.987Z,9.34
2019-03-21T05:54:53.261Z,9.34
2019-03-21T05:57:21.553Z,9.34
2019-03-21T06:16:06.741Z,9.33
2019-03-21T06:27:51.199Z,9.38
2019-03-21T06:30:19.466Z,9.43
2019-03-21T06:32:47.752Z,9.43
2019-03-21T06:38:34.493Z,9.44
2019-03-21T06:41:02.761Z,9.50
2019-03-21T06:43:31.036Z,9.50
2019-03-21T06:45:59.313Z,9.59
2019-03-21T06:48:27.585Z,9.50
2019-03-21T06:50:55.878Z,9.52
2019-03-21T06:53:24.169Z,9.58
2019-03-21T06:59:19.802Z,9.75
2019-03-21T07:01:48.088Z,9.78
2019-03-21T07:04:16.361Z,9.69
2019-03-21T07:06:44.635Z,9.67
2019-03-21T07:09:12.915Z,9.59
2019-03-21T07:11:41.189Z,9.53
2019-03-21T07:14:09.476Z,9.61
2019-03-21T07:17:00.695Z,9.67
2019-03-21T07:19:27.129Z,9.61
2019-03-21T07:21:55.426Z,9.64
2019-03-21T07:24:23.699Z,9.61
2019-03-21T07:26:51.973Z,9.53
2019-03-21T07:29:20.272Z,9.53
2019-03-21T07:31:48.531Z,9.51
2019-03-21T07:34:35.540Z,9.52
2019-03-21T07:37:03.815Z,9.59
2019-03-21T07:39:32.075Z,9.58
2019-03-21T07:42:01.297Z,9.62
2019-03-21T07:44:30.492Z,9.61
2019-03-21T07:46:58.755Z,9.65
2019-03-21T07:49:27.043Z,9.58
2019-03-21T07:51:55.332Z,9.67
2019-03-21T07:57:43.245Z,9.68
2019-03-21T08:03:22.145Z,9.70
2019-03-21T08:05:50.422Z,9.70
2019-03-21T08:08:18.705Z,9.67
2019-03-21T08:10:47.001Z,9.61
2019-03-21T08:13:15.270Z,9.61
2019-03-21T08:15:43.560Z,9.56
2019-03-21T08:18:11.819Z,9.61
2019-03-21T08:20:40.103Z,9.58
2019-03-21T08:23:08.370Z,9.45
2019-03-21T08:25:36.651Z,9.44
2019-03-21T08:28:04.921Z,9.41
2019-03-21T08:33:30.808Z,9.42
2019-03-21T08:35:59.072Z,9.41
2019-03-21T08:41:54.723Z,9.39
2019-03-21T08:44:22.993Z,9.40
2019-03-21T08:46:51.274Z,9.45
2019-03-21T08:49:19.569Z,9.50
2019-03-21T08:51:47.849Z,9.50
2019-03-21T08:54:16.137Z,9.50
2019-03-21T08:56:44.415Z,9.51
2019-03-21T08:59:12.695Z,9.40
2019-03-21T09:01:40.981Z,9.44
2019-03-21T09:04:09.246Z,9.48
2019-03-21T09:06:37.526Z,9.41
2019-03-21T09:09:40.563Z,9.33
2019-03-21T09:12:08.831Z,9.31
2019-03-21T09:14:37.103Z,9.28
2019-03-21T09:17:05.393Z,9.24
2019-03-21T09:19:33.660Z,9.12
2019-03-21T09:24:58.507Z,9.10
2019-03-21T09:27:26.805Z,9.01
2019-03-21T09:29:55.086Z,9.05
2019-03-21T09:32:23.467Z,8.97
2019-03-21T09:34:51.726Z,8.96
2019-03-21T09:37:20.006Z,9.02
2019-03-21T09:39:48.280Z,9.03
2019-03-21T09:42:16.588Z,8.99
2019-03-21T09:44:44.852Z,8.99
2019-03-21T09:47:13.127Z,8.82
2019-03-21T09:49:41.412Z,8.84
2019-03-21T09:52:09.691Z,8.81
2019-03-21T09:54:37.968Z,8.84
2019-03-21T09:57:06.257Z,8.75
2019-03-21T09:59:34.535Z,8.80
2019-03-21T10:02:02.845Z,8.72
2019-03-21T10:07:42.263Z,8.84
2019-03-21T10:13:08.156Z,8.75
2019-03-21T10:15:36.431Z,8.68
2019-03-21T10:21:02.327Z,8.74
2019-03-21T10:23:49.976Z,8.89
2019-03-21T10:29:27.580Z,8.76
2019-03-21T10:31:55.847Z,8.84
2019-03-21T10:34:24.126Z,8.87
2019-03-21T10:36:52.401Z,8.94
2019-03-21T10:39:20.676Z,8.99
2019-03-21T10:41:48.944Z,9.01
2019-03-21T10:44:17.218Z,9.01
2019-03-21T10:46:45.502Z,9.11
2019-03-21T10:49:13.779Z,9.08
2019-03-21T10:51:42.049Z,9.11
2019-03-21T10:54:10.325Z,9.06
2019-03-21T10:59:25.917Z,9.16
2019-03-21T11:01:54.189Z,9.24
2019-03-21T11:04:22.462Z,9.18
2019-03-21T11:10:10.024Z,9.26
2019-03-21T11:12:38.322Z,9.33
2019-03-21T11:21:24.770Z,9.59
2019-03-21T11:23:53.044Z,9.72
2019-03-21T11:29:17.394Z,9.70
2019-03-21T11:31:45.663Z,9.77
2019-03-21T11:34:13.948Z,9.69
2019-03-21T11:36:42.225Z,9.80
2019-03-21T11:39:10.492Z,9.84
2019-03-21T11:41:38.779Z,9.89
2019-03-21T11:47:16.571Z,9.92
2019-03-21T11:49:44.905Z,9.94
2019-03-21T11:55:15.250Z,10.04
2019-03-21T11:57:43.530Z,10.14
2019-03-21T12:03:07.365Z,10.18
2019-03-21T12:05:35.636Z,10.37
2019-03-21T12:08:03.981Z,10.40
2019-03-21T12:10:34.494Z,10.53
2019-03-21T12:16:07.213Z,10.67
2019-03-21T12:18:35.482Z,10.57
2019-03-21T12:21:03.824Z,10.64
2019-03-21T12:23:32.118Z,10.77
2019-03-21T12:26:00.391Z,10.82
2019-03-21T12:28:28.661Z,10.83
2019-03-21T12:30:56.945Z,10.91
2019-03-21T12:33:25.219Z,10.94
2019-03-21T12:35:53.568Z,11.10
2019-03-21T12:38:21.847Z,11.10
2019-03-21T12:40:50.118Z,11.20
2019-03-21T12:46:36.464Z,11.13
2019-03-21T12:49:04.744Z,11.10
2019-03-21T12:51:33.050Z,11.21
2019-03-21T12:54:01.327Z,11.21
2019-03-21T12:56:29.602Z,11.07
2019-03-21T12:58:57.872Z,11.20
2019-03-21T13:01:26.146Z,11.17
2019-03-21T13:03:54.415Z,11.18
2019-03-21T13:06:22.699Z,11.27
2019-03-21T13:08:50.990Z,11.18
2019-03-21T13:11:19.273Z,11.29
2019-03-21T13:13:47.548Z,11.37
2019-03-21T13:16:15.826Z,11.46
2019-03-21T13:18:44.117Z,11.52
2019-03-21T13:21:12.390Z,11.63
2019-03-21T13:23:40.696Z,11.60
2019-03-21T13:26:09.000Z,11.59
2019-03-21T13:28:37.255Z,11.67
2019-03-21T13:31:05.553Z,11.61
2019-03-21T13:33:33.825Z,11.64
2019-03-21T13:36:02.124Z,11.75
2019-03-21T13:38:30.416Z,11.90
2019-03-21T13:40:58.692Z,11.94
2019-03-21T13:43:27.011Z,12.07
2019-03-21T13:49:02.702Z,11.99
2019-03-21T13:51:30.979Z,12.02
2019-03-21T13:53:59.270Z,12.02
2019-03-21T13:56:37.750Z,11.89
2019-03-21T13:58:57.570Z,11.98
2019-03-21T14:01:25.850Z,11.84
2019-03-21T14:03:54.117Z,11.87
2019-03-21T14:09:42.949Z,11.83
2019-03-21T14:12:11.244Z,11.82
2019-03-21T14:14:39.529Z,11.88
2019-03-21T14:19:56.776Z,11.82
2019-03-21T14:22:25.056Z,11.80
2019-03-21T14:24:53.335Z,11.82
2019-03-21T14:27:21.647Z,11.82
2019-03-21T14:30:00.817Z,11.87
2019-03-21T14:35:24.865Z,11.84
2019-03-21T14:37:53.137Z,11.81
2019-03-21T14:40:21.434Z,11.75
2019-03-21T14:42:49.848Z,11.78
2019-03-21T14:45:19.732Z,11.81
2019-03-21T14:47:47.996Z,11.82
2019-03-21T14:56:10.041Z,11.87
2019-03-21T14:58:38.310Z,11.75
2019-03-21T15:01:06.572Z,11.65
2019-03-21T15:03:34.863Z,11.68
2019-03-21T15:06:03.216Z,11.64
2019-03-21T15:08:31.487Z,11.54
2019-03-21T15:10:59.767Z,11.57
2019-03-21T15:13:28.130Z,11.47
2019-03-21T15:15:56.492Z,11.54
2019-03-21T15:18:24.776Z,11.48
2019-03-21T15:20:53.057Z,11.46
2019-03-21T15:23:21.335Z,11.48
2019-03-21T15:25:49.704Z,11.48
2019-03-21T15:28:19.608Z,11.46
2019-03-21T15:30:47.885Z,11.47
2019-03-21T15:33:16.168Z,11.45
2019-03-21T15:35:44.441Z,11.38
2019-03-21T15:38:12.734Z,11.43
2019-03-21T15:40:41.089Z,11.40
2019-03-21T15:43:09.364Z,11.34
2019-03-21T15:45:37.633Z,11.31
2019-03-21T15:48:44.711Z,11.25
2019-03-21T15:54:31.932Z,11.34
2019-03-21T15:57:00.232Z,11.37
2019-03-21T15:59:28.494Z,11.32
2019-03-21T16:01:56.774Z,11.24
2019-03-21T16:04:25.043Z,11.21
2019-03-21T16:06:53.329Z,11.05
2019-03-21T16:12:13.312Z,11.11
2019-03-21T16:14:41.589Z,11.17
2019-03-21T16:17:09.886Z,11.22
2019-03-21T16:25:57.038Z,11.09
2019-03-21T16:31:38.019Z,11.06
2019-03-21T16:34:06.301Z,10.96
2019-03-21T16:39:32.197Z,10.90
2019-03-21T16:42:00.469Z,10.88
2019-03-21T16:47:49.307Z,10.94
2019-03-21T16:50:17.589Z,10.88
2019-03-21T16:52:45.856Z,10.87
2019-03-21T16:58:25.305Z,10.75
2019-03-21T17:00:53.590Z,10.78
2019-03-21T17:03:21.865Z,10.95
2019-03-21T17:05:50.154Z,10.84
2019-03-21T17:08:18.435Z,10.71
2019-03-21T17:10:46.700Z,10.61
2019-03-21T17:19:46.892Z,10.61
2019-03-21T17:22:15.183Z,10.61
2019-03-21T17:24:43.465Z,10.64
2019-03-21T17:27:11.751Z,10.58
2019-03-21T17:29:40.058Z,10.54
2019-03-21T17:32:08.331Z,10.47
2019-03-21T17:34:36.609Z,10.38
2019-03-21T17:39:52.276Z,10.32
2019-03-21T17:42:21.165Z,10.30
2019-03-21T17:50:41.934Z,10.35
2019-03-21T17:53:47.163Z,10.21
2019-03-21T17:59:42.800Z,10.22
2019-03-21T18:02:11.083Z,10.23
2019-03-21T18:04:39.372Z,10.23
2019-03-21T18:07:07.674Z,10.25
2019-03-21T18:12:36.111Z,10.17
2019-03-21T18:18:11.894Z,10.09
2019-03-21T18:20:40.168Z,10.09
2019-03-21T18:23:08.436Z,10.19
2019-03-21T18:25:36.728Z,10.15
2019-03-21T18:28:04.994Z,10.14
2019-03-21T18:30:35.591Z,10.09
2019-03-21T18:33:03.863Z,10.15
2019-03-21T18:35:32.170Z,10.11
2019-03-21T18:38:00.473Z,10.02
2019-03-21T18:40:28.742Z,10.03
2019-03-21T18:42:57.055Z,10.03
2019-03-21T18:45:25.351Z,10.06
2019-03-21T18:54:12.341Z,10.01
2019-03-21T18:56:40.616Z,10.00
2019-03-21T18:59:08.904Z,10.03
2019-03-21T19:01:37.182Z,10.05
2019-03-21T19:04:05.540Z,10.07
2019-03-21T19:06:33.817Z,10.10
2019-03-21T19:09:02.100Z,10.05
2019-03-21T19:11:30.392Z,10.03
2019-03-21T19:13:58.663Z,9.93
2019-03-21T19:19:35.018Z,9.99
2019-03-21T19:22:03.286Z,9.96
2019-03-21T19:24:31.578Z,9.94
2019-03-21T19:26:59.854Z,10.01
2019-03-21T19:29:28.142Z,10.04
2019-03-21T19:31:56.449Z,10.01
2019-03-21T19:34:24.722Z,9.98
2019-03-21T19:36:52.993Z,9.99
2019-03-21T19:39:21.302Z,9.94
2019-03-21T19:41:49.804Z,9.93
2019-03-21T19:44:18.074Z,9.98
2019-03-21T19:46:46.405Z,9.98
2019-03-21T19:49:46.137Z,9.94
2019-03-21T19:52:14.420Z,9.98
2019-03-21T19:54:42.730Z,10.02
2019-03-21T19:57:11.151Z,9.99
2019-03-21T19:59:40.732Z,9.99
2019-03-21T20:02:09.453Z,10.03
2019-03-21T20:04:37.735Z,10.03
2019-03-21T20:07:06.007Z,9.96
2019-03-21T20:09:34.281Z,9.91
2019-03-21T20:12:02.568Z,9.86
2019-03-21T20:14:30.844Z,9.90
2019-03-21T20:16:59.126Z,9.83
2019-03-21T20:19:27.425Z,9.76
2019-03-21T20:21:55.718Z,9.83
2019-03-21T20:24:24.007Z,9.91
2019-03-21T20:26:52.282Z,9.88
2019-03-21T20:29:20.594Z,9.93
2019-03-21T20:31:48.867Z,9.70
2019-03-21T20:34:17.133Z,9.74
2019-03-21T20:36:45.457Z,9.78
2019-03-21T20:39:13.742Z,9.73
2019-03-21T20:41:42.009Z,9.72
2019-03-21T20:44:29.650Z,9.72
2019-03-21T20:46:57.927Z,9.72
2019-03-21T20:49:26.220Z,9.73
2019-03-21T20:51:54.492Z,9.60
2019-03-21T20:54:22.776Z,9.66
2019-03-21T20:56:51.131Z,9.72
2019-03-21T20:59:19.432Z,9.61
2019-03-21T21:01:47.703Z,9.63
2019-03-21T21:04:15.973Z,9.59
2019-03-21T21:06:44.258Z,9.55
2019-03-21T21:09:12.541Z,9.46
2019-03-21T21:11:40.805Z,9.53
2019-03-21T21:14:09.083Z,9.61
2019-03-21T21:16:37.368Z,9.53
2019-03-21T21:19:05.631Z,9.50
2019-03-21T21:21:33.907Z,9.49
2019-03-21T21:24:02.189Z,9.48
2019-03-21T21:26:30.484Z,9.33
2019-03-21T21:28:58.761Z,9.32
2019-03-21T21:31:27.032Z,9.38
2019-03-21T21:33:55.378Z,9.43
2019-03-21T21:36:23.659Z,9.34
2019-03-21T21:38:51.941Z,9.34
2019-03-21T21:41:20.267Z,9.22
2019-03-21T21:43:48.515Z,9.33
2019-03-21T21:46:16.781Z,9.24
2019-03-21T21:48:45.045Z,9.24
2019-03-21T21:51:13.313Z,9.28
2019-03-21T21:53:41.886Z,9.21
2019-03-21T21:56:17.498Z,9.13
2019-03-21T21:58:40.170Z,9.13
2019-03-21T22:01:08.449Z,9.20
2019-03-21T22:03:36.719Z,9.22
2019-03-21T22:06:05.009Z,9.20
2019-03-21T22:08:33.286Z,9.20
2019-03-21T22:11:01.569Z,9.26
2019-03-21T22:13:29.831Z,9.26
2019-03-21T22:15:58.110Z,9.28
2019-03-21T22:18:26.398Z,9.20
2019-03-21T22:20:54.659Z,9.27
2019-03-21T22:23:22.942Z,9.28
2019-03-21T22:25:51.244Z,9.19
2019-03-21T22:28:19.517Z,9.16
2019-03-21T22:30:47.785Z,9.19
2019-03-21T22:33:16.064Z,9.11
2019-03-21T22:35:44.349Z,9.11
2019-03-21T22:38:12.627Z,9.15
2019-03-21T22:40:40.902Z,9.15
2019-03-21T22:43:09.174Z,9.22
2019-03-21T22:45:37.440Z,9.15
2019-03-21T22:48:05.728Z,9.07
2019-03-21T22:50:46.668Z,9.18
2019-03-21T22:53:14.963Z,9.18
2019-03-21T22:55:43.268Z,9.21
2019-03-21T22:58:11.558Z,9.05
2019-03-21T23:00:58.931Z,8.86
2019-03-21T23:03:27.215Z,8.92
2019-03-21T23:05:55.518Z,8.94
2019-03-21T23:08:23.795Z,9.02
2019-03-21T23:10:52.083Z,9.10
2019-03-21T23:13:20.355Z,9.04
2019-03-21T23:15:48.648Z,8.94
2019-03-21T23:18:16.932Z,8.86
2019-03-21T23:20:45.219Z,8.93
2019-03-21T23:23:13.499Z,8.88
2019-03-21T23:25:41.801Z,8.97
2019-03-21T23:28:10.039Z,8.86
2019-03-21T23:30:38.313Z,8.93
2019-03-21T23:33:06.588Z,8.98
2019-03-21T23:35:34.885Z,8.95
2019-03-21T23:38:03.162Z,8.88
2019-03-21T23:40:31.423Z,8.94
2019-03-21T23:42:59.724Z,8.93
2019-03-21T23:45:28.009Z,9.00
2019-03-21T23:47:56.281Z,8.94
2019-03-21T23:50:24.589Z,8.92
2019-03-21T23:52:52.861Z,8.91
2019-03-21T23:55:21.146Z,8.88
2019-03-21T23:57:49.433Z,8.84
